Tiempo atmosférico en la estación meteorológica de Arenys De Mar, Barcelona (50 m.)



Fecha
DESCASC
Temp. máxima en grados centígrados (hora)
DESCASC
Temp. mínima en grados centígrados (hora)
DESCASC
Temp. media en grados centígrados
DESCASC
Racha de viento máxima en m/sg (hora)
DESCASC
Velocidad máxima media en intervalos de 10 minutos(hora)
DESCASC
Precipitaciones diarias en mm
DESCASC
Precipitaciones de 00:00 a 06:00 en mm
DESCASC
Precipitaciones de 06:00 a 12:00 en mm
DESCASC
Precipitaciones de 12:00 a 18:00 en mm
DESCASC
Precipitaciones de 18:00 a 24:00 en mm
DESCASC
22-04-2019 17.7 (15:20) 14.2 (22:10) 16 13.33 (03:40) 4.44 (10:00) 0.1 0 0.1 0 0
21-04-2019 20.9 (14:50) 14.8 (00:10) 17.8 14.72 (00:10) 6.11 (00:10) 0 0 0 0 0
20-04-2019 18.7 (12:40) 13.7 (20:50) 16.2 13.61 (23:30) 6.11 (23:30) 0.4 0 0 0 0.4
19-04-2019 21.5 (15:50) 14.6 (07:40) 18.1 12.22 (17:40) 5.28 (07:20) 0 0 0 0 0
18-04-2019 19.8 (16:30) 11.2 (00:00) 15.5 10.56 (22:20) 4.17 (23:20) 0 0 0 0 0
17-04-2019 18.9 (14:50) 9 (00:00) 13.9 6.39 (12:20) 1.94 (14:30) 0 0 0 0 0
16-04-2019 18.6 (16:10) 9.1 (00:00) 13.9 5.28 (11:20) 2.22 (00:10) 0.4 0.4 0 0 0
15-04-2019 17.4 (12:40) 7.9 (00:00) 12.6 5.28 (14:20) 2.22 (23:50) 0 0 0 0 0
14-04-2019 18.4 (12:20) 8.4 (00:00) 13.4 6.11 (14:10) 1.94 (16:30) 0 0 0 0 0
13-04-2019 19 (15:30) 7.6 (00:00) 13.3 4.72 (16:10) 2.22 (16:10) 0 0 0 0 0
12-04-2019 18.9 (13:30) 9.4 (00:00) 14.1 5.83 (16:00) 2.5 (16:10) 0 0 0 0 0
11-04-2019 20.2 (15:20) 8.4 (00:00) 14.3 5.56 (02:10) 2.78 (02:10) 0.1 0 0.1 0 0
10-04-2019 19.7 (13:40) 8.2 (00:00) 14 14.17 (22:00) 6.11 (22:00) 3.6 0 0 1.1 2.5
09-04-2019 16.9 (12:40) 9.3 (00:00) 13.1 8.06 (18:30) 3.61 (18:30) 5.4 0.1 1.6 0.7 3
08-04-2019 18.9 (16:10) 7.6 (00:00) 13.2 7.5 (14:00) 3.61 (13:50) 0 0 0 0 0
07-04-2019 19.1 (12:10) 6.6 (00:00) 12.9 6.94 (15:50) 3.89 (15:50) 1.2 0 0 1.2 0
06-04-2019 19.1 (16:00) 8.2 (00:00) 13.7 11.11 (11:10) 4.17 (16:50) 0.8 0.8 0 0 0
05-04-2019 17.1 (17:00) 6.1 (00:00) 11.6 9.17 (14:30) 4.44 (16:20) 8.4 0 0 0 8.4
04-04-2019 14.8 (15:30) 4.4 (00:00) 9.6 7.5 (07:30) 3.61 (09:00) 0.2 0.2 0 0 0
03-04-2019 19 (14:40) 7.5 (00:00) 13.3 6.11 (12:40) 2.78 (15:00) 10.3 1.6 0 0.9 7.8
02-04-2019 20.5 (13:30) 8.6 (00:00) 14.6 8.89 (14:20) 4.17 (14:20) 0 0 0 0 0
01-04-2019 19.1 (11:50) 9.1 (00:00) 14.1 4.72 (16:20) 2.5 (07:00) 0 0 0 0 0
31-03-2019 18.1 (11:50) 8.5 (00:00) 13.3 6.39 (14:40) 2.5 (00:10) 0 0 0 0 0
30-03-2019 18.3 (11:40) 7.4 (00:00) 12.8 5.83 (12:50) 2.5 (05:50) 0 0 0 0 0
29-03-2019 19.3 (13:20) 6.9 (00:00) 13.1 7.5 (11:20) 2.22 (07:20) 0 0 0 0 0
28-03-2019 18.8 (12:30) 8.5 (00:00) 13.6 5.83 (02:30) 3.06 (02:30) 0 0 0 0 0
27-03-2019 18.4 (12:50) 6.1 (00:00) 12.2 6.11 (04:50) 2.5 (23:30) 0 0 0 0 0

Gráficas

Temp. máximas Temp. mínimas Temp. medias Precipitaciones Rachas de viento máximas Velocidades máximas media en intervalos de 10 minutos

Datos horarios

Fecha y hora oficial Temperatura (ºC) Velocidad del viento (km/h) Dirección del viento Racha (km/h) Dirección de racha Precipitación (mm) Presión (hPa) Tendencia (hPa) Humedad (%)
2019-04-25 11:00:00 16.6 12 Sudoeste 35 Sudoeste 0 -- -- 73
2019-04-25 10:00:00 15.9 10 Sudoeste 29 Sur 0 -- -- 75
2019-04-25 09:00:00 15.2 13 Sudoeste 31 Sudoeste 0 -- -- 77
2019-04-25 08:00:00 14.6 5 Sur 14 Sudoeste 0 -- -- 83
2019-04-25 07:00:00 14.2 6 Sur 24 Sur 0 -- -- 85
2019-04-25 06:00:00 14.2 8 Sur 19 Sudoeste 0 -- -- 83
2019-04-25 05:00:00 14.3 8 Sur 19 Sur 0 -- -- 83
2019-04-25 04:00:00 14.3 10 Sur 25 Sudoeste 0 -- -- 83
2019-04-25 03:00:00 14.4 10 Sur 30 Sudoeste 0 -- -- 81
2019-04-25 02:00:00 14.4 7 Sur 21 Sur 0 -- -- 83
2019-04-25 01:00:00 14.1 5 Sur 10 Sur 0 -- -- 75
2019-04-25 00:00:00 13.8 3 Sur 6 Sudoeste 0 -- -- 71
2019-04-24 23:00:00 13.6 0 Calma 8 Noroeste 0 -- -- 69
2019-04-24 22:00:00 12.2 0 Calma 12 Sudoeste 0 -- -- 72
2019-04-24 21:00:00 13.7 7 Sudoeste 22 Sudoeste 0 -- -- 66
2019-04-24 20:00:00 14.4 10 Sudoeste 30 Sur 0 -- -- 59
2019-04-24 19:00:00 15.1 14 Sur 32 Sur 0 -- -- 54
2019-04-24 18:00:00 16.4 12 Sudoeste 40 Sudoeste 0 -- -- 46
2019-04-24 17:00:00 17 15 Sur 43 Sudoeste 0 -- -- 46
2019-04-24 16:00:00 16.9 15 Sur 41 Sur 0 -- -- 47
2019-04-24 15:00:00 17.5 15 Sur 44 Sudoeste 0 -- -- 51
2019-04-24 14:00:00 16.9 20 Sur 45 Sur 0 -- -- 54
2019-04-24 13:00:00 18.1 15 Sur 39 Sur 0 -- -- 52
2019-04-24 12:00:00 18.9 14 Sudoeste 35 Sur 0 -- -- 38
2019-04-24 11:00:00 16.9 15 Sur 33 Sur 0 -- -- 34
2019-04-24 10:00:00 16.4 7 Noroeste 23 Oeste 0 -- -- 39
2019-04-24 09:00:00 15.3 6 Sudoeste 22 Sudoeste 0 -- -- 64
2019-04-24 08:00:00 14 8 Sur 26 Sudoeste 0 -- -- 77
2019-04-24 07:00:00 13.5 6 Sur 22 Sur 0 -- -- 86
2019-04-24 06:00:00 14 11 Sur 23 Sudoeste 0 -- -- 88
2019-04-24 05:00:00 14.2 5 Sur 21 Sur 0 -- -- 86
2019-04-24 04:00:00 14.2 4 Sur 16 Sudoeste 0 -- -- 85
2019-04-24 03:00:00 14.2 5 Sudoeste 14 Sudoeste 0 -- -- 87
2019-04-24 02:00:00 13.7 3 Sudoeste 12 Sudoeste 0 -- -- 90
2019-04-24 01:00:00 13.7 0 Calma 5 Sur 0 -- -- 90
2019-04-24 00:00:00 14.1 0 Calma 7 Sur 0 -- -- 88
2019-04-23 23:00:00 14.9 3 Sur 5 Norte 0 -- -- 85
2019-04-23 22:00:00 14 0 Calma 4 Sur 0 -- -- 87
2019-04-23 21:00:00 14.4 2 Sudoeste 21 Sudoeste 0 -- -- 85
2019-04-23 20:00:00 15 4 Sur 14 Sur 0 -- -- 86
2019-04-23 19:00:00 15.7 5 Sur 14 Sudoeste 0 -- -- 79
2019-04-23 18:00:00 16.1 8 Sur 24 Sur 0 -- -- 71
2019-04-23 17:00:00 18.2 12 Sur 29 Sudoeste 0 -- -- 55
2019-04-23 16:00:00 19.1 10 Sudoeste 33 Sur 0 -- -- 51
2019-04-23 15:00:00 19.1 10 Sur 23 Sudoeste 0 -- -- 53
2019-04-23 14:00:00 18.8 9 Sur 23 Sur 0 -- -- 57
2019-04-23 13:00:00 17.7 7 Sudoeste 21 Sudoeste 0 -- -- 60
2019-04-23 12:00:00 16.8 9 Sur 17 Sudoeste 0 -- -- 69
2019-04-23 11:00:00 17 6 Sudoeste 13 Sur 0 -- -- 70
2019-04-23 10:00:00 15.9 4 Sur 10 Sur 0 -- -- 75
2019-04-23 09:00:00 16.5 3 Sudoeste 8 Sudeste 0 -- -- 75
2019-04-23 08:00:00 15.1 5 Sur 14 Noroeste 0 -- -- 77
2019-04-23 07:00:00 15.2 10 Norte 26 Noroeste 0 -- -- 70
2019-04-23 06:00:00 15.3 11 Norte 30 Norte 0 -- -- 71
2019-04-23 05:00:00 14.6 10 Norte 24 Noroeste 0 -- -- 78
2019-04-23 04:00:00 14.5 15 Noroeste 26 Noroeste 0 -- -- 78
2019-04-23 03:00:00 14.4 12 Norte 20 Norte 0 -- -- 79
2019-04-23 02:00:00 14.4 10 Norte 28 Norte 0 -- -- 79
2019-04-23 01:00:00 14.3 11 Norte 29 Norte 0 -- -- 80
2019-04-23 00:00:00 14.2 14 Norte 34 Norte 0 -- -- 78
2019-04-22 23:00:00 14.5 14 Norte 33 Norte 0 -- -- 73
2019-04-22 22:00:00 14.3 13 Norte 32 Norte 0 -- -- 69
2019-04-22 21:00:00 15.8 9 Norte 34 Norte 0 -- -- 54
2019-04-22 20:00:00 16 12 Norte 30 Norte 0 -- -- 52
2019-04-22 19:00:00 16.2 13 Norte 35 Norte 0 -- -- 51
2019-04-22 18:00:00 16.5 13 Norte 41 Norte 0 -- -- 52
2019-04-22 17:00:00 16.8 11 Nordeste 37 Nordeste 0 -- -- 54
2019-04-22 16:00:00 17.3 11 Norte 37 Nordeste 0 -- -- 50
2019-04-22 15:00:00 16.8 6 Norte 39 Norte 0 -- -- 51
2019-04-22 14:00:00 16.3 9 Norte 34 Norte 0 -- -- 53
2019-04-22 13:00:00 16.8 11 Norte 41 Este 0 -- -- 52
2019-04-22 12:00:00 17.4 10 Nordeste 42 Norte 0 -- -- 51
2019-04-22 11:00:00 16.9 10 Norte 39 Norte 0 -- -- 51
2019-04-22 10:00:00 16.2 16 Norte 42 Norte 0 -- -- 51
2019-04-22 09:00:00 15.3 9 Norte 40 Norte 0.1 -- -- 52
2019-04-22 08:00:00 15.3 9 Nordeste 39 Nordeste 0 -- -- 53
2019-04-22 07:00:00 15 8 Norte 31 Nordeste 0 -- -- 55
2019-04-22 06:00:00 15.1 12 Norte 37 Nordeste 0 -- -- 49
2019-04-22 05:00:00 15.7 15 Norte 36 Norte 0 -- -- 48
2019-04-22 04:00:00 15.5 14 Norte 48 Nordeste 0 -- -- 51
2019-04-22 03:00:00 15.5 9 Norte 33 Este 0 -- -- 49
2019-04-22 02:00:00 15.8 13 Nordeste 39 Norte 0 -- -- 47
2019-04-22 01:00:00 15.9 11 Nordeste 40 Norte 0 -- -- 47
2019-04-22 00:00:00 15.7 10 Norte 34 Nordeste 0 -- -- 49
2019-04-21 23:00:00 15.7 13 Nordeste 34 Nordeste 0 -- -- 50
2019-04-21 22:00:00 15.5 13 Norte 49 Norte 0 -- -- 53
2019-04-21 21:00:00 15.5 15 Norte 47 Norte 0 -- -- 53
2019-04-21 20:00:00 16.1 17 Norte 40 Nordeste 0 -- -- 51
2019-04-21 19:00:00 17.3 9 Norte 33 Este 0 -- -- 47
2019-04-21 18:00:00 18.2 8 Norte 37 Nordeste 0 -- -- 45
2019-04-21 17:00:00 19 5 Este 40 Nordeste 0 -- -- 43
2019-04-21 16:00:00 18.2 11 Norte 40 Nordeste 0 -- -- 42
2019-04-21 15:00:00 19.5 9 Norte 34 Norte 0 -- -- 39
2019-04-21 14:00:00 19.2 12 Norte 40 Norte 0 -- -- 41
2019-04-21 13:00:00 17.6 12 Nordeste 35 Norte 0 -- -- 44
2019-04-21 12:00:00 17.7 6 Nordeste 42 Nordeste 0 -- -- 47
2019-04-21 11:00:00 17.1 6 Norte 42 Norte 0 -- -- 50
2019-04-21 10:00:00 16.5 8 Nordeste 47 Norte 0 -- -- 51
2019-04-21 09:00:00 15.9 16 Norte 44 Norte 0 -- -- 48
2019-04-21 08:00:00 15.5 13 Norte 44 Norte 0 -- -- 46
2019-04-21 07:00:00 15.2 18 Norte 44 Norte 0 -- -- 47
2019-04-21 06:00:00 15 13 Norte 35 Este 0 -- -- 48
2019-04-21 05:00:00 15.2 13 Norte 41 Norte 0 -- -- 48
2019-04-21 04:00:00 15.2 15 Norte 40 Nordeste 0 -- -- 46
2019-04-21 03:00:00 15.2 18 Norte 41 Norte 0 -- -- 46
2019-04-21 02:00:00 15.4 10 Norte 39 Norte 0 -- -- 46
2019-04-21 01:00:00 15 17 Norte 53 Norte 0 -- -- 47
2019-04-21 00:00:00 14.9 14 Norte 49 Norte 0 -- -- 48
2019-04-20 23:00:00 14.5 20 Norte 44 Norte 0 -- -- 49
2019-04-20 22:00:00 14.3 17 Norte 45 Norte 0 -- -- 53
2019-04-20 21:00:00 14 15 Norte 36 Norte 0.1 -- -- 57
2019-04-20 20:00:00 14.6 14 Norte 32 Norte 0.3 -- -- 54
2019-04-20 19:00:00 15.8 11 Nordeste 35 Nordeste 0 -- -- 44
2019-04-20 18:00:00 16.2 13 Norte 36 Norte 0 -- -- 44
2019-04-20 17:00:00 16.6 12 Norte 40 Nordeste 0 -- -- 43
2019-04-20 16:00:00 17.2 8 Norte 39 Nordeste 0 -- -- 40
2019-04-20 15:00:00 17.8 11 Norte 31 Norte 0 -- -- 38
2019-04-20 14:00:00 18.2 6 Norte 27 Este 0 -- -- 37
2019-04-20 13:00:00 18.4 6 Norte 24 Este 0 -- -- 39
2019-04-20 12:00:00 18.2 6 Nordeste 40 Norte 0 -- -- 39
2019-04-20 11:00:00 17.3 14 Norte 45 Nordeste 0 -- -- 41
2019-04-20 10:00:00 16.7 16 Norte 43 Norte 0 -- -- 41
2019-04-20 09:00:00 16.8 12 Norte 36 Norte 0 -- -- 42
2019-04-20 08:00:00 15.8 13 Norte 37 Norte 0 -- -- 42
2019-04-20 07:00:00 16 12 Nordeste 38 Norte 0 -- -- 39
2019-04-20 06:00:00 16.3 12 Norte 39 Norte 0 -- -- 38
2019-04-20 05:00:00 16.6 10 Nordeste 32 Norte 0 -- -- 37
2019-04-20 04:00:00 16.7 13 Norte 31 Nordeste 0 -- -- 37
2019-04-20 03:00:00 16.7 12 Norte 30 Nordeste 0 -- -- 38
2019-04-20 02:00:00 16.5 12 Norte 34 Nordeste 0 -- -- 40
2019-04-20 01:00:00 16.2 12 Norte 35 Norte 0 -- -- 42
2019-04-20 00:00:00 16.3 13 Nordeste 35 Nordeste -- -- -- 42
2019-04-19 23:00:00 16.1 11 Nordeste 36 Norte 0 -- -- 44
2019-04-19 22:00:00 16.2 16 Norte 39 Norte 0 -- -- 44
2019-04-19 21:00:00 16.2 7 Nordeste 27 Norte 0 -- -- 46
2019-04-19 20:00:00 16.8 10 Norte 33 Norte 0 -- -- 46
2019-04-19 19:00:00 17.6 8 Norte 36 Norte 0 -- -- 45
2019-04-19 18:00:00 18.3 8 Nordeste 44 Nordeste 0 -- -- 43
2019-04-19 17:00:00 19.5 8 Este 33 Este 0 -- -- 41
2019-04-19 16:00:00 20.1 8 Este 34 Nordeste 0 -- -- 38
2019-04-19 15:00:00 20.5 10 Nordeste 33 Norte 0 -- -- 40
2019-04-19 14:00:00 19.2 10 Norte 44 Norte 0 -- -- 42
2019-04-19 13:00:00 18.3 11 Norte 32 Nordeste 0 -- -- 44
2019-04-19 12:00:00 17.5 11 Norte 37 Nordeste 0 -- -- 48
2019-04-19 11:00:00 16.4 10 Norte 32 Norte 0 -- -- 55
2019-04-19 10:00:00 15.4 14 Norte 35 Norte 0 -- -- 60
2019-04-19 09:00:00 15 10 Norte 37 Norte 0 -- -- 60
2019-04-19 08:00:00 14.7 13 Norte 39 Nordeste 0 -- -- 59
2019-04-19 07:00:00 14.9 16 Norte 34 Norte 0 -- -- 54
2019-04-19 06:00:00 15.1 15 Norte 31 Norte 0 -- -- 51
2019-04-19 05:00:00 15.4 12 Norte 30 Norte 0 -- -- 51
2019-04-19 04:00:00 15.3 10 Norte 29 Noroeste 0 -- -- 52
2019-04-19 03:00:00 15.2 11 Norte 30 Nordeste 0 -- -- 52
2019-04-19 02:00:00 14.9 11 Norte 35 Norte 0 -- -- 54
2019-04-19 01:00:00 14.8 13 Norte 39 Norte 0 -- -- 57
2019-04-19 00:00:00 14.9 12 Norte 33 Norte 0 -- -- 55
2019-04-18 23:00:00 15 15 Norte 38 Norte 0 -- -- 54
2019-04-18 22:00:00 15 10 Nordeste 29 Norte 0 -- -- 53
2019-04-18 21:00:00 15.2 13 Norte 32 Nordeste 0 -- -- 54
2019-04-18 20:00:00 15.7 9 Nordeste 33 Nordeste 0 -- -- 57
2019-04-18 19:00:00 16.9 6 Nordeste 24 Nordeste 0 -- -- 53
2019-04-18 18:00:00 16.9 5 Sudeste 29 Este 0 -- -- 54
2019-04-18 17:00:00 19.1 3 Este 32 Nordeste 0 -- -- 43
2019-04-18 16:00:00 18.8 5 Norte 30 Nordeste 0 -- -- 44
2019-04-18 15:00:00 18.5 8 Norte 29 Este 0 -- -- 42
2019-04-18 14:00:00 18.1 4 Norte 27 Norte 0 -- -- 48
2019-04-18 13:00:00 17.1 6 Norte 25 Nordeste 0 -- -- 45
2019-04-18 12:00:00 19.3 3 Norte 21 Norte 0 -- -- 39
2019-04-18 11:00:00 16.8 5 Norte 19 Norte 0 -- -- 43
2019-04-18 10:00:00 15.6 8 Norte 21 Norte 0 -- -- 47
2019-04-18 09:00:00 14.4 5 Nordeste 20 Nordeste 0 -- -- 60
2019-04-18 08:00:00 13 10 Norte 23 Norte 0 -- -- 66
2019-04-18 07:00:00 11.5 4 Norte 16 Norte 0 -- -- 81
2019-04-18 06:00:00 11.6 7 Norte 14 Norte 0 -- -- 87
2019-04-18 05:00:00 11.7 4 Norte 10 Este 0 -- -- 87
2019-04-18 04:00:00 12.7 0 Calma 11 Nordeste 0 -- -- 85
2019-04-18 03:00:00 12.9 0 Calma 9 Norte 0 -- -- 85
2019-04-18 02:00:00 13.5 0 Calma 7 Norte 0 -- -- 85
2019-04-18 01:00:00 13.9 0 Calma 10 Nordeste 0 -- -- 85
2019-04-18 00:00:00 14 0 Calma 8 Sudeste 0 -- -- 85
2019-04-17 23:00:00 14 0 Calma 11 Sudeste 0 -- -- 86
2019-04-17 22:00:00 14.2 3 Sudeste 10 Sudeste 0 -- -- 86
2019-04-17 21:00:00 14.3 3 Sudeste 8 Este 0 -- -- 83
2019-04-17 20:00:00 14.6 2 Sur 10 Sudeste 0 -- -- 75
2019-04-17 19:00:00 15.7 3 Sur 10 Sur 0 -- -- 64
2019-04-17 18:00:00 17.7 3 Sur 13 Sur 0 -- -- 55
2019-04-17 17:00:00 17.4 5 Sudeste 14 Sudeste 0 -- -- 51
2019-04-17 16:00:00 17.1 4 Sur 16 Sur 0 -- -- 52
2019-04-17 15:00:00 18.1 5 Sudoeste 18 Sudoeste 0 -- -- 48
2019-04-17 14:00:00 16.8 7 Sur 16 Sur 0 -- -- 50
2019-04-17 13:00:00 17.2 6 Sur 23 Sur 0 -- -- 50
2019-04-17 12:00:00 17.6 5 Sudeste 13 Sudeste 0 -- -- 51
2019-04-17 11:00:00 15 4 Sudeste 11 Este 0 -- -- 65
2019-04-17 10:00:00 13.9 2 Sudeste 9 Sudeste 0 -- -- 77
2019-04-17 09:00:00 12.6 0 Calma 5 Norte 0 -- -- 87
2019-04-17 08:00:00 10.4 3 Norte 8 Nordeste 0 -- -- 91
2019-04-17 07:00:00 9.1 4 Norte 8 Norte 0 -- -- 91
2019-04-17 06:00:00 9.2 2 Norte 12 Norte 0 -- -- 91
2019-04-17 05:00:00 10 6 Norte 11 Norte 0 -- -- 91
2019-04-17 04:00:00 9.9 2 Norte 10 Norte 0 -- -- 91
2019-04-17 03:00:00 11 4 Norte 9 Norte 0 -- -- 91
2019-04-17 02:00:00 10.7 4 Norte 6 Norte 0 -- -- 91
2019-04-17 01:00:00 10.7 3 Norte 4 Sudoeste 0 -- -- 90
2019-04-17 00:00:00 11.6 0 Calma 5 Noroeste 0 -- -- 87
2019-04-16 23:00:00 13 0 Calma 6 Norte 0 -- -- 83
2019-04-16 22:00:00 12.9 0 Calma 9 Sudeste 0 -- -- 84
2019-04-16 21:00:00 13.4 0 Calma 7 Sudeste 0 -- -- 81
2019-04-16 20:00:00 13.8 3 Sudeste 9 Este 0 -- -- 78
2019-04-16 19:00:00 14.3 3 Sudeste 12 Sudeste 0 -- -- 74
2019-04-16 18:00:00 15 5 Sudeste 15 Sudeste 0 -- -- 71
2019-04-16 17:00:00 15.2 5 Sudeste 15 Sur 0 -- -- 69
2019-04-16 16:00:00 17.5 5 Sur 14 Sudeste 0 -- -- 56
2019-04-16 15:00:00 16.5 5 Sur 10 Sudeste 0 -- -- 62
2019-04-16 14:00:00 15 3 Sudeste 11 Sudeste 0 -- -- 68
2019-04-16 13:00:00 16.2 5 Sudeste 13 Sudeste 0 -- -- 65
2019-04-16 12:00:00 15.1 4 Sudeste 19 Sudeste 0 -- -- 68
2019-04-16 11:00:00 17.5 4 Sudeste 17 Sudeste 0 -- -- 57
2019-04-16 10:00:00 16.1 3 Sudeste 9 Sur 0 -- -- 62
2019-04-16 09:00:00 13.4 4 Norte 10 Norte 0 -- -- 72
2019-04-16 08:00:00 10.2 5 Norte 12 Norte 0 -- -- 81
2019-04-16 07:00:00 9.5 7 Norte 14 Norte 0 -- -- 82
2019-04-16 06:00:00 9.9 5 Norte 12 Norte 0 -- -- 80
2019-04-16 05:00:00 9.5 8 Norte 15 Norte 0 -- -- 78
2019-04-16 04:00:00 9.1 4 Norte 14 Norte 0 -- -- 84
2019-04-16 03:00:00 9.6 7 Norte 13 Norte 0 -- -- 87
2019-04-16 02:00:00 10.8 7 Norte 12 Norte 0.4 -- -- 86
2019-04-16 01:00:00 10.8 7 Norte 13 Norte 0 -- -- 74
2019-04-16 00:00:00 10.1 8 Norte 16 Norte 0 -- -- 66
2019-04-15 23:00:00 10.6 6 Norte 11 Nordeste 0 -- -- 58
2019-04-15 22:00:00 11.3 2 Norte 5 Norte 0 -- -- 54
2019-04-15 21:00:00 12.3 0 Calma 8 Sudeste 0 -- -- 48
2019-04-15 20:00:00 13.6 0 Calma 6 Sudeste 0 -- -- 37
2019-04-15 19:00:00 15.1 3 Sur 10 Sur 0 -- -- 40
2019-04-15 18:00:00 14.9 4 Sur 12 Sudeste 0 -- -- 49
2019-04-15 17:00:00 14.8 4 Sur 14 Sur 0 -- -- 50
2019-04-15 16:00:00 15.1 5 Sur 14 Sur 0 -- -- 51
2019-04-15 15:00:00 15 7 Sur 19 Sudeste 0 -- -- 48
2019-04-15 14:00:00 16 6 Sur 18 Sudeste 0 -- -- 44
2019-04-15 13:00:00 16.3 6 Sudeste 16 Sudeste 0 -- -- 45
2019-04-15 12:00:00 16 6 Sudeste 19 Sudeste 0 -- -- 42
2019-04-15 11:00:00 16 4 Sudeste 17 Sudeste 0 -- -- 44
2019-04-15 10:00:00 15.2 4 Sudeste 14 Este 0 -- -- 45
2019-04-15 09:00:00 12.6 2 Norte 8 Noroeste 0 -- -- 56
2019-04-15 08:00:00 9.4 4 Norte 11 Norte 0 -- -- 69
2019-04-15 07:00:00 8.1 3 Norte 9 Norte 0 -- -- 73
2019-04-15 06:00:00 8.4 3 Norte 8 Nordeste 0 -- -- 70
2019-04-15 05:00:00 9.2 4 Norte 9 Norte 0 -- -- 66
2019-04-15 04:00:00 9.3 4 Norte 8 Norte 0 -- -- 61
2019-04-15 03:00:00 10.5 4 Noroeste 15 Norte 0 -- -- 52
2019-04-15 02:00:00 10.1 7 Norte 15 Norte 0 -- -- 57
2019-04-15 01:00:00 10.5 4 Norte 13 Norte 0 -- -- 58
2019-04-15 00:00:00 10.5 5 Norte 10 Noroeste 0 -- -- 67
2019-04-14 23:00:00 10.6 4 Norte 9 Norte 0 -- -- 70
2019-04-14 22:00:00 11.3 2 Noroeste 6 Noroeste 0 -- -- 79
2019-04-14 21:00:00 11.7 0 Calma 7 Norte 0 -- -- 75
2019-04-14 20:00:00 13.1 0 Calma 8 Sur 0 -- -- 65
2019-04-14 19:00:00 15.4 5 Sur 12 Sudeste 0 -- -- 52
2019-04-14 18:00:00 16.4 5 Sudeste 14 Sur 0 -- -- 50
2019-04-14 17:00:00 16.1 6 Sur 17 Sudeste 0 -- -- 50
2019-04-14 16:00:00 15.5 3 Sudeste 16 Sudeste 0 -- -- 50
2019-04-14 15:00:00 14.8 6 Sudeste 22 Sudeste 0 -- -- 53
2019-04-14 14:00:00 16.9 5 Sudeste 18 Sudeste 0 -- -- 51
2019-04-14 13:00:00 16.5 4 Sudeste 18 Sudeste 0 -- -- 52
2019-04-14 12:00:00 17.7 3 Sudeste 16 Este 0 -- -- 53
2019-04-14 11:00:00 16.8 6 Sudeste 17 Sudeste 0 -- -- 47
2019-04-14 10:00:00 14.5 0 Calma 9 Este 0 -- -- 51
2019-04-14 09:00:00 12.7 0 Calma 12 Norte 0 -- -- 66
2019-04-14 08:00:00 10.2 6 Norte 13 Norte 0 -- -- 74
2019-04-14 07:00:00 8.8 4 Norte 11 Norte 0 -- -- 86
2019-04-14 06:00:00 8.5 5 Norte 11 Norte 0 -- -- 86
2019-04-14 05:00:00 8.8 5 Norte 10 Norte 0 -- -- 86
2019-04-14 04:00:00 9.1 6 Norte 11 Norte 0 -- -- 82
2019-04-14 03:00:00 9.1 5 Norte 9 Norte 0 -- -- 80
2019-04-14 02:00:00 9.6 5 Norte 8 Norte 0 -- -- 74
2019-04-14 01:00:00 10 4 Norte 7 Norte 0 -- -- 68
2019-04-14 00:00:00 9.9 4 Norte 9 Norte 0 -- -- 65
2019-04-13 23:00:00 10.3 4 Norte 8 Norte 0 -- -- 65
2019-04-13 22:00:00 11 4 Norte 8 Norte 0 -- -- 64
2019-04-13 21:00:00 12.4 3 Oeste 8 Sudoeste 0 -- -- 70
2019-04-13 20:00:00 13.9 4 Sudoeste 13 Sudoeste 0 -- -- 69
2019-04-13 19:00:00 15.6 6 Sur 13 Sudoeste 0 -- -- 60
2019-04-13 18:00:00 15.3 6 Sur 15 Sur 0 -- -- 64
2019-04-13 17:00:00 17.4 6 Sur 17 Sudoeste 0 -- -- 60
2019-04-13 16:00:00 18.2 6 Sur 17 Sudeste 0 -- -- 55
2019-04-13 15:00:00 17.4 6 Sudeste 17 Sudeste 0 -- -- 55
2019-04-13 14:00:00 17.4 7 Sur 15 Sudeste 0 -- -- 52
2019-04-13 13:00:00 18 5 Sudeste 15 Sudeste 0 -- -- 49
2019-04-13 12:00:00 17.9 4 Sudeste 13 Sudeste 0 -- -- 46
2019-04-13 11:00:00 17 4 Sur 14 Este 0 -- -- 49
2019-04-13 10:00:00 15.7 3 Sudeste 9 Sudeste 0 -- -- 55
2019-04-13 09:00:00 11.5 0 Calma 10 Norte 0 -- -- 76
2019-04-13 08:00:00 8.6 4 Norte 11 Norte 0 -- -- 83
2019-04-13 07:00:00 8.1 2 Norte 9 Norte 0 -- -- 88
2019-04-13 06:00:00 8.6 2 Norte 9 Norte 0 -- -- 88
2019-04-13 05:00:00 9 2 Norte 9 Norte 0 -- -- 88
2019-04-13 04:00:00 9.4 4 Noroeste 10 Noroeste 0 -- -- 88
2019-04-13 03:00:00 9.7 5 Norte 10 Norte 0 -- -- 89
2019-04-13 02:00:00 10.2 3 Noroeste 12 Sudoeste 0 -- -- 86
2019-04-13 01:00:00 11 5 Sudoeste 9 Sudoeste 0 -- -- 85
2019-04-13 00:00:00 10.5 5 Norte 8 Norte 0 -- -- 85
2019-04-12 23:00:00 11.3 3 Norte 7 Norte 0 -- -- 81
2019-04-12 22:00:00 12.6 0 Calma 10 Sur 0 -- -- 72
2019-04-12 21:00:00 13.4 5 Sur 13 Sur 0 -- -- 66
2019-04-12 20:00:00 14.2 6 Sur 13 Sur 0 -- -- 61
2019-04-12 19:00:00 15 5 Sur 12 Sudoeste 0 -- -- 60
2019-04-12 18:00:00 14.3 8 Sur 17 Sur 0 -- -- 56
2019-04-12 17:00:00 15.7 6 Sur 20 Sudeste 0 -- -- 51
2019-04-12 16:00:00 18.1 9 Sur 21 Sur 0 -- -- 48
2019-04-12 15:00:00 17.6 7 Sur 16 Sur 0 -- -- 46
2019-04-12 14:00:00 17.5 8 Sur 17 Sur 0 -- -- 46
2019-04-12 13:00:00 18.1 8 Sur 20 Sudoeste 0 -- -- 45
2019-04-12 12:00:00 17.2 8 Sur 18 Sur 0 -- -- 46
2019-04-12 11:00:00 17.2 8 Sur 16 Sur 0 -- -- 51
2019-04-12 10:00:00 17.2 4 Sudeste 10 Sudeste 0 -- -- 54
2019-04-12 09:00:00 11 4 Norte 10 Norte 0 -- -- 68
2019-04-12 08:00:00 9.5 6 Norte 9 Norte 0 -- -- 68
2019-04-12 07:00:00 9.8 3 Norte 12 Norte 0 -- -- 61
2019-04-12 06:00:00 10.5 4 Norte 7 Norte 0 -- -- 58
2019-04-12 05:00:00 10.7 3 Norte 7 Norte 0 -- -- 56
2019-04-12 04:00:00 11.5 0 Calma 13 Noroeste 0 -- -- 54
2019-04-12 03:00:00 14 4 Norte 11 Noroeste 0 -- -- 43
2019-04-12 02:00:00 13.6 5 Norte 12 Noroeste 0 -- -- 45
2019-04-12 01:00:00 14 4 Oeste 10 Oeste 0 -- -- 46
2019-04-12 00:00:00 12.6 2 Nordeste 14 Norte 0 -- -- 51
2019-04-11 23:00:00 12.9 0 Calma 9 Sudoeste 0 -- -- 51
2019-04-11 22:00:00 12.4 0 Calma 9 Norte 0 -- -- 55
2019-04-11 21:00:00 13.1 0 Calma 8 Norte 0 -- -- 59
2019-04-11 20:00:00 14.7 3 Noroeste 6 Sudoeste 0 -- -- 59
2019-04-11 19:00:00 15 0 Calma 8 Sudeste 0 -- -- 61
2019-04-11 18:00:00 15.4 4 Sur 8 Sur 0 -- -- 52
2019-04-11 17:00:00 16.4 0 Calma 10 Este 0 -- -- 42
2019-04-11 16:00:00 16.3 4 Sudeste 15 Sur 0 -- -- 50
2019-04-11 15:00:00 18.9 5 Sur 13 Sur 0 -- -- 36
2019-04-11 14:00:00 18.6 7 Sur 17 Sur 0 -- -- 46
2019-04-11 13:00:00 16.1 5 Sur 16 Sudeste 0 -- -- 54
2019-04-11 12:00:00 16.7 6 Sur 15 Sudoeste 0 -- -- 49
2019-04-11 11:00:00 17.9 5 Sur 13 Sudoeste 0.1 -- -- 37
2019-04-11 10:00:00 16.8 4 Sur 11 Sur 0 -- -- 38
2019-04-11 09:00:00 12.9 3 Sudoeste 8 Sudoeste 0 -- -- 56
2019-04-11 08:00:00 9.2 4 Norte 9 Noroeste 0 -- -- 68
2019-04-11 07:00:00 9 4 Norte 13 Norte 0 -- -- 68
2019-04-11 06:00:00 10.4 5 Norte 11 Norte 0 -- -- 64
2019-04-11 05:00:00 10.5 4 Norte 11 Norte 0 -- -- 67
2019-04-11 04:00:00 11.3 5 Norte 12 Norte 0 -- -- 61
2019-04-11 03:00:00 10.4 4 Norte 20 Noroeste 0 -- -- 73
2019-04-11 02:00:00 11.6 9 Norte 19 Sudoeste 0 -- -- 61
2019-04-11 01:00:00 10.6 9 Norte 16 Norte 0 -- -- 78
2019-04-11 00:00:00 9.5 8 Norte 17 Norte 0 -- -- 86
2019-04-10 23:00:00 9.7 6 Norte 26 Sudoeste 1 -- -- 89
2019-04-10 22:00:00 11.1 22 Noroeste 51 Noroeste 1.5 -- -- 70
2019-04-10 21:00:00 13.2 7 Noroeste 18 Norte 0 -- -- 52
2019-04-10 20:00:00 13.5 7 Noroeste 13 Noroeste 0 -- -- 56
2019-04-10 19:00:00 14.6 5 Oeste 21 Oeste 0 -- -- 51
2019-04-10 18:00:00 13.2 8 Oeste 23 Noroeste 0 -- -- 62
2019-04-10 17:00:00 12 8 Oeste 31 Oeste 0.1 -- -- 69
2019-04-10 16:00:00 14 3 Sur 10 Sudoeste 0.5 -- -- 72
2019-04-10 15:00:00 13.4 3 Oeste 14 Sudeste 0.5 -- -- 78
2019-04-10 14:00:00 16.2 4 Sur 17 Sudeste 0 -- -- 43
2019-04-10 13:00:00 16.9 5 Sur 13 Sudeste 0 -- -- 48
2019-04-10 12:00:00 18.1 6 Sudeste 12 Sudeste 0 -- -- 51
2019-04-10 11:00:00 16.1 3 Este 9 Este 0 -- -- 47
2019-04-10 10:00:00 16.3 4 Sur 11 Norte 0 -- -- 47
2019-04-10 09:00:00 12 6 Norte 14 Norte 0 -- -- 57
2019-04-10 08:00:00 10.1 8 Norte 15 Norte 0 -- -- 63
2019-04-10 07:00:00 9.8 8 Norte 16 Norte 0 -- -- 65
2019-04-10 06:00:00 8.5 6 Norte 11 Norte 0 -- -- 76
2019-04-10 05:00:00 8.4 0 Calma 15 Norte 0 -- -- 76
2019-04-10 04:00:00 9.1 0 Calma 11 Noroeste 0 -- -- 72
2019-04-10 03:00:00 9.1 0 Calma 8 Sudoeste 0 -- -- 76
2019-04-10 02:00:00 11.6 3 Norte 23 Noroeste 0 -- -- 61
2019-04-10 01:00:00 12.2 11 Noroeste 27 Noroeste 0 -- -- 53
2019-04-10 00:00:00 12 11 Noroeste 23 Noroeste 0 -- -- 57
2019-04-09 23:00:00 11.1 6 Noroeste 19 Sudoeste 0 -- -- 67
2019-04-09 22:00:00 9.9 5 Noroeste 18 Norte 0 -- -- 84
2019-04-09 21:00:00 9.7 0 Calma 7 Oeste 0.1 -- -- 90
2019-04-09 20:00:00 10 3 Noroeste 12 Noroeste 0.4 -- -- 89
2019-04-09 19:00:00 10.3 2 Noroeste 29 Noroeste 2.5 -- -- 85
2019-04-09 18:00:00 10.4 10 Norte 23 Norte 0.5 -- -- 73
2019-04-09 17:00:00 14.1 6 Sur 15 Sur 0 -- -- 63
2019-04-09 16:00:00 15.6 4 Sur 14 Sudeste 0 -- -- 58
2019-04-09 15:00:00 15.6 2 Sudeste 10 Nordeste 0 -- -- 68
2019-04-09 14:00:00 12.5 2 Este 10 Sur 0.2 -- -- 80
2019-04-09 13:00:00 13.8 4 Sudeste 12 Sudeste 0 -- -- 65
2019-04-09 12:00:00 13.6 4 Sudeste 12 Sudeste 0 -- -- 64
2019-04-09 11:00:00 14.9 4 Sudeste 15 Este 0 -- -- 61
2019-04-09 10:00:00 13.3 0 Calma 10 Este 0 -- -- 72
2019-04-09 09:00:00 10.7 2 Nordeste 7 Norte 0 -- -- 91
2019-04-09 08:00:00 10.7 2 Norte 9 Norte 1.5 -- -- 90
2019-04-09 07:00:00 11.1 4 Norte 11 Norte 0.1 -- -- 85
2019-04-09 06:00:00 10.5 2 Norte 8 Norte 0 -- -- 85
2019-04-09 05:00:00 9.9 6 Norte 12 Norte 0 -- -- 88
2019-04-09 04:00:00 9.4 0 Calma 7 Norte 0 -- -- 90
2019-04-09 03:00:00 11 8 Norte 14 Norte 0.1 -- -- 84
2019-04-09 02:00:00 11.2 0 Calma 9 Norte 0 -- -- 87
2019-04-09 01:00:00 11 4 Oeste 12 Norte 0 -- -- 86
2019-04-09 00:00:00 11.5 4 Norte 11 Norte 0 -- -- 86
2019-04-08 23:00:00 12.1 4 Norte 8 Norte 0 -- -- 83
2019-04-08 22:00:00 12.2 3 Norte 6 Noroeste 0 -- -- 83
2019-04-08 21:00:00 13.6 0 Calma 5 Sudeste 0 -- -- 75
2019-04-08 20:00:00 14.4 2 Sudeste 8 Sudeste 0 -- -- 69
2019-04-08 19:00:00 15.3 3 Sudeste 12 Sur 0 -- -- 64
2019-04-08 18:00:00 16.9 5 Sur 19 Sur 0 -- -- 55
2019-04-08 17:00:00 17.5 8 Sur 18 Sur 0 -- -- 49
2019-04-08 16:00:00 18.2 6 Sur 24 Sur 0 -- -- 46
2019-04-08 15:00:00 17.7 9 Sudoeste 26 Sur 0 -- -- 44
2019-04-08 14:00:00 17 13 Sur 27 Sudoeste 0 -- -- 59
2019-04-08 13:00:00 17.6 10 Sudoeste 23 Sur 0 -- -- 41
2019-04-08 12:00:00 16.5 8 Sur 17 Sudeste 0 -- -- 40
2019-04-08 11:00:00 15.4 5 Sur 12 Sur 0 -- -- 42
2019-04-08 10:00:00 15.1 3 Sur 14 Noroeste 0 -- -- 41
2019-04-08 09:00:00 12.3 4 Oeste 12 Sudoeste 0 -- -- 56
2019-04-08 08:00:00 8.9 3 Sudoeste 10 Oeste 0 -- -- 79
2019-04-08 07:00:00 8.1 0 Calma 12 Oeste 0 -- -- 86
2019-04-08 06:00:00 8.4 0 Calma 7 Noroeste 0 -- -- 84
2019-04-08 05:00:00 10.3 5 Oeste 11 Sudoeste 0 -- -- 79
2019-04-08 04:00:00 9.3 8 Sudoeste 13 Sudoeste 0 -- -- 80
2019-04-08 03:00:00 8.6 4 Oeste 11 Norte 0 -- -- 82
2019-04-08 02:00:00 9.5 6 Norte 14 Noroeste 0 -- -- 73
2019-04-08 01:00:00 9.2 6 Noroeste 12 Noroeste 0 -- -- 78
2019-04-08 00:00:00 9.6 9 Noroeste 15 Noroeste 0 -- -- 77
2019-04-07 23:00:00 9.8 9 Sudoeste 14 Oeste 0 -- -- 73
2019-04-07 22:00:00 11.1 6 Oeste 19 Noroeste 0 -- -- 62
2019-04-07 21:00:00 10.2 0 Calma 13 Sudoeste 0 -- -- 75
2019-04-07 20:00:00 11.5 3 Oeste 14 Oeste 0 -- -- 66
2019-04-07 19:00:00 14 3 Oeste 10 Oeste 0 -- -- 56
2019-04-07 18:00:00 12.6 4 Sudoeste 8 Sur 0 -- -- 61
2019-04-07 17:00:00 10.2 3 Sur 15 Norte 0.2 -- -- 84
2019-04-07 16:00:00 10.1 11 Noroeste 25 Noroeste 1 -- -- 79
2019-04-07 15:00:00 13 5 Sur 20 Sur 0 -- -- 64
2019-04-07 14:00:00 17.1 8 Sur 22 Sudoeste 0 -- -- 40
2019-04-07 13:00:00 16.5 9 Sudeste 21 Sur 0 -- -- 38
2019-04-07 12:00:00 18.5 3 Sudeste 15 Sudoeste 0 -- -- 33
2019-04-07 11:00:00 15.2 4 Norte 13 Nordeste 0 -- -- 35
2019-04-07 10:00:00 15 0 Calma 9 Norte 0 -- -- 42
2019-04-07 09:00:00 8.2 6 Norte 14 Norte 0 -- -- 65
2019-04-07 08:00:00 7.5 6 Norte 14 Norte 0 -- -- 65
2019-04-07 07:00:00 6.8 2 Norte 9 Norte 0 -- -- 66
2019-04-07 06:00:00 7.9 2 Sudeste 15 Noroeste 0 -- -- 58
2019-04-07 05:00:00 8.6 5 Noroeste 15 Sudoeste 0 -- -- 55
2019-04-07 04:00:00 10.5 8 Sudoeste 15 Sudoeste 0 -- -- 51
2019-04-07 03:00:00 8.7 5 Norte 13 Norte 0 -- -- 79
2019-04-07 02:00:00 9.4 6 Norte 14 Norte 0 -- -- 78
2019-04-07 01:00:00 8.6 6 Norte 12 Norte 0 -- -- 78
2019-04-07 00:00:00 8.4 4 Norte 9 Norte 0 -- -- 68
2019-04-06 23:00:00 8.7 6 Norte 9 Norte 0 -- -- 64
2019-04-06 22:00:00 10.6 4 Oeste 14 Oeste 0 -- -- 59
2019-04-06 21:00:00 12.5 6 Sudoeste 26 Sur 0 -- -- 53
2019-04-06 20:00:00 13.1 9 Sur 28 Sur 0 -- -- 51
2019-04-06 19:00:00 13.3 12 Sur 30 Sur 0 -- -- 47
2019-04-06 18:00:00 14.9 10 Sudoeste 27 Sur 0 -- -- 44
2019-04-06 17:00:00 14.9 14 Sur 33 Sur 0 -- -- 43
2019-04-06 16:00:00 17.9 12 Sudoeste 33 Sudoeste 0 -- -- 30
2019-04-06 15:00:00 17.9 6 Oeste 23 Sudoeste 0 -- -- 28
2019-04-06 14:00:00 18.3 11 Sudoeste 35 Sudoeste 0 -- -- 30
2019-04-06 13:00:00 16.1 11 Oeste 35 Sudoeste 0 -- -- 35
2019-04-06 12:00:00 14.9 6 Oeste 40 Sudoeste 0 -- -- 41
2019-04-06 11:00:00 13.9 12 Sudoeste 33 Oeste 0 -- -- 49
2019-04-06 10:00:00 12.1 8 Sudoeste 24 Sudoeste 0 -- -- 55
2019-04-06 09:00:00 9.6 8 Noroeste 26 Noroeste 0 -- -- 66
2019-04-06 08:00:00 8.9 11 Noroeste 27 Noroeste 0 -- -- 71
2019-04-06 07:00:00 9.3 12 Noroeste 24 Noroeste 0 -- -- 75
2019-04-06 06:00:00 9.5 7 Noroeste 26 Oeste 0.2 -- -- 83
2019-04-06 05:00:00 9.8 3 Noroeste 12 Oeste 0.1 -- -- 89
2019-04-06 04:00:00 10.1 2 Sudoeste 8 Oeste 0 -- -- 90
2019-04-06 03:00:00 9.9 0 Calma 12 Oeste 0.2 -- -- 90
2019-04-06 02:00:00 11 0 Calma 8 Noroeste 0.2 -- -- 90
2019-04-06 01:00:00 11 5 Sudoeste 21 Sudoeste 0.1 -- -- 90
2019-04-06 00:00:00 11.4 0 Calma 8 Norte 0 -- -- 90
2019-04-05 23:00:00 10.7 3 Norte 9 Noroeste 0.1 -- -- 90
2019-04-05 22:00:00 10.8 3 Oeste 23 Sudoeste 8.3 -- -- 88
2019-04-05 21:00:00 13.8 3 Sur 14 Sur 0 -- -- 70
2019-04-05 20:00:00 13.7 6 Sur 23 Sur 0 -- -- 65
2019-04-05 19:00:00 14.1 10 Sur 23 Sudoeste 0 -- -- 74
2019-04-05 18:00:00 14.3 10 Sur 26 Sur 0 -- -- 69
2019-04-05 17:00:00 15.9 12 Sur 33 Sur 0 -- -- 60
2019-04-05 16:00:00 16 12 Sur 29 Sur 0 -- -- 60
2019-04-05 15:00:00 15.3 14 Sur 33 Sur 0 -- -- 60
2019-04-05 14:00:00 15.9 13 Sur 26 Sudoeste 0 -- -- 58
2019-04-05 13:00:00 13.9 6 Sur 15 Sudeste 0 -- -- 60
2019-04-05 12:00:00 13.8 8 Sur 15 Sur 0 -- -- 58
2019-04-05 11:00:00 13.3 8 Sur 18 Sur 0 -- -- 56
2019-04-05 10:00:00 13.8 7 Sudoeste 18 Sudoeste 0 -- -- 52
2019-04-05 09:00:00 12.6 5 Oeste 14 Oeste 0 -- -- 60
2019-04-05 08:00:00 10.2 5 Noroeste 14 Sudoeste 0 -- -- 64
2019-04-05 07:00:00 8.3 7 Sudoeste 18 Sudoeste 0 -- -- 65
2019-04-05 06:00:00 9.7 7 Noroeste 17 Oeste 0 -- -- 59
2019-04-05 05:00:00 9.2 5 Oeste 15 Sudoeste 0 -- -- 59
2019-04-05 04:00:00 8.4 4 Noroeste 10 Oeste 0 -- -- 67
2019-04-05 03:00:00 6.2 0 Calma 7 Noroeste 0 -- -- 83
2019-04-05 02:00:00 6.6 3 Norte 8 Norte 0 -- -- 82
2019-04-05 01:00:00 6.8 6 Norte 17 Norte 0 -- -- 77
2019-04-05 00:00:00 6.7 9 Norte 17 Norte 0 -- -- 76
2019-04-04 23:00:00 6.6 7 Norte 13 Norte 0 -- -- 75
2019-04-04 22:00:00 7.2 4 Noroeste 10 Norte 0 -- -- 71
2019-04-04 21:00:00 7.9 4 Norte 9 Norte 0 -- -- 65
2019-04-04 20:00:00 9.9 3 Sur 9 Sur 0 -- -- 50
2019-04-04 19:00:00 12.6 3 Sur 13 Sur 0 -- -- 39
2019-04-04 18:00:00 13.2 6 Sur 15 Sur 0 -- -- 37
2019-04-04 17:00:00 13.4 6 Sudeste 16 Sudeste 0 -- -- 34
2019-04-04 16:00:00 13.3 6 Sudeste 19 Sur 0 -- -- 36
2019-04-04 15:00:00 13.9 6 Sur 19 Nordeste 0 -- -- 34
2019-04-04 14:00:00 12.6 6 Sudeste 16 Nordeste 0 -- -- 35
2019-04-04 13:00:00 13.3 6 Sudeste 17 Sudeste 0 -- -- 34
2019-04-04 12:00:00 13.3 6 Sudeste 15 Sudeste 0 -- -- 36
2019-04-04 11:00:00 12.8 6 Sudeste 14 Sudeste 0 -- -- 36
2019-04-04 10:00:00 9.7 6 Norte 19 Noroeste 0 -- -- 43
2019-04-04 09:00:00 7.3 13 Noroeste 23 Noroeste 0 -- -- 52
2019-04-04 08:00:00 5.5 9 Noroeste 27 Noroeste 0 -- -- 64
2019-04-04 07:00:00 5.5 10 Noroeste 21 Noroeste 0 -- -- 75
2019-04-04 06:00:00 5.3 4 Sudoeste 11 Noroeste 0.1 -- -- 89
2019-04-04 05:00:00 5.1 5 Norte 10 Norte 0 -- -- 90
2019-04-04 04:00:00 6.3 0 Calma 7 Noroeste 0 -- -- 90
2019-04-04 03:00:00 6.9 0 Calma 4 Sudoeste 0 -- -- 90
2019-04-04 02:00:00 6.8 0 Calma 8 Norte 0 -- -- 90
2019-04-04 01:00:00 7.6 0 Calma 10 Este 0.1 -- -- 90
2019-04-04 00:00:00 7.8 0 Calma 8 Sudeste 0.3 -- -- 90
2019-04-03 23:00:00 8.3 0 Calma 11 Norte 1.7 -- -- 90
2019-04-03 22:00:00 9.2 2 Norte 13 Sur 1.5 -- -- 90
2019-04-03 21:00:00 10.9 0 Calma 7 Nordeste 2.9 -- -- 90
2019-04-03 20:00:00 11 2 Norte 9 Norte 0.7 -- -- 90
2019-04-03 19:00:00 11.3 2 Norte 15 Este 0.7 -- -- 89
2019-04-03 18:00:00 14.3 3 Sur 8 Sur 0.1 -- -- 87
2019-04-03 17:00:00 14.8 4 Sur 10 Sur 0 -- -- 83
2019-04-03 16:00:00 15.3 3 Sur 13 Sur 0.8 -- -- 83
2019-04-03 15:00:00 15 10 Sur 19 Sur 0 -- -- 69
2019-04-03 14:00:00 16.9 8 Sur 16 Sudoeste 0 -- -- 69
2019-04-03 13:00:00 15.8 5 Sur 22 Sur 0 -- -- 74
2019-04-03 12:00:00 15.4 9 Sur 21 Sur 0 -- -- 72
2019-04-03 11:00:00 16.4 6 Sudoeste 17 Sudoeste 0 -- -- 70
2019-04-03 10:00:00 14.6 4 Sudoeste 13 Sudoeste 0 -- -- 86
2019-04-03 09:00:00 12.9 0 Calma 4 Sur 0 -- -- 91
2019-04-03 08:00:00 12.3 0 Calma 7 Sudoeste 0 -- -- 91
2019-04-03 07:00:00 11.8 0 Calma 5 Norte 0 -- -- 91
2019-04-03 06:00:00 11.4 3 Norte 6 Noroeste 0 -- -- 91
2019-04-03 05:00:00 11.5 2 Norte 7 Norte 0 -- -- 91
2019-04-03 04:00:00 10.8 4 Norte 10 Norte 0 -- -- 91
2019-04-03 03:00:00 10.3 5 Noroeste 10 Noroeste 0 -- -- 91
2019-04-03 02:00:00 11 4 Noroeste 9 Noroeste 1.4 -- -- 91
2019-04-03 01:00:00 12.3 5 Norte 10 Norte 0.2 -- -- 86
2019-04-03 00:00:00 12.6 4 Norte 12 Norte 0 -- -- 78
2019-04-02 23:00:00 12.2 4 Norte 9 Nordeste 0 -- -- 76
2019-04-02 22:00:00 13 0 Calma 15 Norte 0 -- -- 72
2019-04-02 21:00:00 13.5 2 Nordeste 13 Nordeste 0 -- -- 73
2019-04-02 20:00:00 14.2 0 Calma 8 Sudoeste 0 -- -- 79
2019-04-02 19:00:00 14.7 5 Sur 14 Sudoeste 0 -- -- 81
2019-04-02 18:00:00 15.7 6 Sur 21 Sudoeste 0 -- -- 74
2019-04-02 17:00:00 15.9 10 Sur 25 Sur 0 -- -- 79
2019-04-02 16:00:00 16.5 11 Sur 28 Sur 0 -- -- 70
2019-04-02 15:00:00 16.5 10 Sudoeste 32 Sudoeste 0 -- -- 68
2019-04-02 14:00:00 18.4 14 Sur 30 Sur 0 -- -- 61
2019-04-02 13:00:00 17.2 12 Sur 28 Sur 0 -- -- 63
2019-04-02 12:00:00 17.9 8 Sur 19 Sur 0 -- -- 54
2019-04-02 11:00:00 17.4 6 Sur 17 Sudoeste 0 -- -- 45
2019-04-02 10:00:00 17.1 5 Sur 12 Sur 0 -- -- 47
2019-04-02 09:00:00 13 0 Calma 5 Nordeste 0 -- -- 64
2019-04-02 08:00:00 11.4 0 Calma 5 Nordeste 0 -- -- 69
2019-04-02 07:00:00 10.6 0 Calma 5 Nordeste 0 -- -- 73
2019-04-02 06:00:00 10.2 0 Calma 5 Norte 0 -- -- 76
2019-04-02 05:00:00 10 3 Norte 6 Norte 0 -- -- 75
2019-04-02 04:00:00 9.7 0 Calma 9 Sudoeste 0 -- -- 75
2019-04-02 03:00:00 10.9 4 Sudoeste 11 Sudoeste 0 -- -- 66
2019-04-02 02:00:00 9.3 0 Calma 8 Sudoeste 0 -- -- 74
2019-04-02 01:00:00 8.9 3 Nordeste 7 Norte 0 -- -- 73
2019-04-02 00:00:00 9.3 4 Norte 8 Norte 0 -- -- 73
2019-04-01 23:00:00 9.6 3 Nordeste 8 Norte 0 -- -- 74
2019-04-01 22:00:00 10.2 4 Norte 8 Norte 0 -- -- 75
2019-04-01 21:00:00 11.2 0 Calma 6 Sur 0 -- -- 74
2019-04-01 20:00:00 13.1 4 Sur 11 Sur 0 -- -- 70
2019-04-01 19:00:00 15.4 4 Sur 15 Sur 0 -- -- 54
2019-04-01 18:00:00 16.5 6 Sur 13 Sur 0 -- -- 52
2019-04-01 17:00:00 17.3 6 Sur 17 Sur 0 -- -- 46
2019-04-01 16:00:00 16.7 6 Sudeste 15 Sur 0 -- -- 55
2019-04-01 15:00:00 17.8 5 Sudeste 16 Sudeste 0 -- -- 51
2019-04-01 14:00:00 17.8 7 Sur 15 Sur 0 -- -- 40
2019-04-01 13:00:00 17.4 5 Sudeste 15 Sudeste 0 -- -- 37
2019-04-01 12:00:00 18.5 5 Sudeste 14 Sudeste 0 -- -- 30
2019-04-01 11:00:00 17.8 4 Sudeste 11 Este 0 -- -- 31
2019-04-01 10:00:00 15.7 0 Calma 8 Sudeste 0 -- -- 40
2019-04-01 09:00:00 13.3 0 Calma 7 Norte 0 -- -- 47
2019-04-01 08:00:00 10.5 3 Norte 14 Norte 0 -- -- 48
2019-04-01 07:00:00 9.8 9 Norte 15 Norte 0 -- -- 56
2019-04-01 06:00:00 10 3 Norte 6 Noroeste 0 -- -- 56
2019-04-01 05:00:00 10.3 3 Norte 6 Norte 0 -- -- 55
2019-04-01 04:00:00 10.7 3 Norte 8 Norte 0 -- -- 54
2019-04-01 03:00:00 10.5 3 Norte 10 Norte 0 -- -- 57
2019-04-01 02:00:00 11.3 4 Norte 11 Norte 0 -- -- 56
2019-04-01 01:00:00 11.4 4 Norte 7 Norte 0 -- -- 56
2019-04-01 00:00:00 12 4 Norte 9 Norte 0 -- -- 55
2019-03-31 23:00:00 12 0 Calma 6 Norte 0 -- -- 56
2019-03-31 22:00:00 12.4 3 Norte 6 Nordeste 0 -- -- 58
2019-03-31 21:00:00 13.3 2 Norte 8 Nordeste 0 -- -- 57
2019-03-31 20:00:00 13.7 3 Nordeste 14 Este 0 -- -- 60
2019-03-31 19:00:00 14.5 0 Calma 15 Sudeste 0 -- -- 61
2019-03-31 18:00:00 15 4 Este 21 Este 0 -- -- 59
2019-03-31 17:00:00 15.9 5 Sudeste 21 Sudeste 0 -- -- 53
2019-03-31 16:00:00 17.6 5 Sudeste 23 Sudeste 0 -- -- 49
2019-03-31 15:00:00 16.7 6 Sudeste 23 Sudeste 0 -- -- 50
2019-03-31 14:00:00 15.9 5 Este 22 Nordeste 0 -- -- 53
2019-03-31 13:00:00 17.2 4 Sudeste 23 Este 0 -- -- 56
2019-03-31 12:00:00 17.9 4 Este 18 Este 0 -- -- 47
2019-03-31 11:00:00 14.9 4 Este 14 Este 0 -- -- 61
2019-03-31 10:00:00 13.6 3 Nordeste 14 Nordeste 0 -- -- 70
2019-03-31 09:00:00 12.5 2 Norte 11 Nordeste 0 -- -- 75
2019-03-31 08:00:00 12 3 Nordeste 10 Norte 0 -- -- 78
2019-03-31 07:00:00 11 5 Norte 9 Norte 0 -- -- 79
2019-03-31 06:00:00 10.7 5 Norte 11 Norte 0 -- -- 80
2019-03-31 05:00:00 9.6 6 Norte 13 Norte 0 -- -- 81
2019-03-31 03:00:00 8.9 7 Norte 13 Norte 0 -- -- 83
2019-03-31 01:00:00 9.5 5 Norte 14 Norte 0 -- -- 84
2019-03-31 00:00:00 9.6 7 Norte 15 Norte 0 -- -- 83
2019-03-30 23:00:00 9.4 8 Norte 15 Norte 0 -- -- 83
2019-03-30 22:00:00 9.9 6 Norte 10 Norte 0 -- -- 80
2019-03-30 21:00:00 10.8 2 Norte 7 Sudeste 0 -- -- 75
2019-03-30 20:00:00 12.5 0 Calma 10 Este 0 -- -- 68
2019-03-30 19:00:00 12.8 3 Sudeste 12 Sudeste 0 -- -- 66
2019-03-30 18:00:00 13.5 4 Sudeste 17 Sudeste 0 -- -- 64
2019-03-30 17:00:00 15 4 Sudeste 19 Norte 0 -- -- 54
2019-03-30 16:00:00 16.3 6 Sudeste 17 Sudeste 0 -- -- 50
2019-03-30 15:00:00 16.8 7 Sudeste 19 Nordeste 0 -- -- 45
2019-03-30 14:00:00 17.2 6 Sudeste 21 Sudeste 0 -- -- 48
2019-03-30 13:00:00 16.8 6 Sudeste 21 Sudeste 0 -- -- 50
2019-03-30 12:00:00 16.7 6 Sudeste 16 Sudeste 0 -- -- 48
2019-03-30 11:00:00 16.1 5 Sur 15 Sudeste 0 -- -- 49
2019-03-30 10:00:00 16.7 3 Sudeste 12 Sudeste 0 -- -- 49
2019-03-30 09:00:00 13.5 5 Norte 12 Norte 0 -- -- 57
2019-03-30 08:00:00 9.4 7 Norte 16 Norte 0 -- -- 71
2019-03-30 07:00:00 7.9 8 Norte 15 Norte 0 -- -- 75
2019-03-30 06:00:00 7.9 9 Norte 15 Norte 0 -- -- 77
2019-03-30 05:00:00 7.5 8 Norte 13 Norte 0 -- -- 83
2019-03-30 04:00:00 7.7 7 Norte 14 Norte 0 -- -- 83
2019-03-30 03:00:00 8.5 7 Norte 12 Norte 0 -- -- 82
2019-03-30 02:00:00 8.2 5 Noroeste 11 Norte 0 -- -- 83
2019-03-30 01:00:00 8.2 5 Noroeste 11 Norte 0 -- -- 81
2019-03-30 00:00:00 8.2 8 Norte 13 Norte 0 -- -- 75
2019-03-29 23:00:00 8.6 4 Norte 13 Norte 0 -- -- 67
2019-03-29 22:00:00 8.9 6 Norte 14 Norte 0 -- -- 61
2019-03-29 21:00:00 9.5 6 Norte 12 Norte 0 -- -- 56
2019-03-29 20:00:00 10.4 4 Norte 7 Noroeste 0 -- -- 54
2019-03-29 19:00:00 12.6 0 Calma 12 Nordeste 0 -- -- 49
2019-03-29 18:00:00 14.7 4 Este 13 Sudeste 0 -- -- 42
2019-03-29 17:00:00 16.3 3 Sudeste 19 Sudeste 0 -- -- 44
2019-03-29 16:00:00 17.3 4 Sudeste 19 Sudeste 0 -- -- 43
2019-03-29 15:00:00 18 6 Sudeste 19 Sudeste 0 -- -- 42
2019-03-29 14:00:00 17.9 6 Sudeste 20 Sudeste 0 -- -- 39
2019-03-29 13:00:00 17.8 5 Sudeste 20 Sudeste 0 -- -- 35
2019-03-29 12:00:00 19.1 6 Sudeste 27 Sudeste 0 -- -- 34
2019-03-29 11:00:00 18.4 5 Sudeste 15 Sudeste 0 -- -- 42
2019-03-29 10:00:00 16.1 5 Sudeste 13 Sudeste 0 -- -- 55
2019-03-29 09:00:00 15.5 3 Sudeste 11 Norte 0 -- -- 59
2019-03-29 08:00:00 10.4 5 Norte 15 Norte 0 -- -- 63
2019-03-29 07:00:00 8 7 Norte 13 Norte 0 -- -- 68
2019-03-29 06:00:00 7.3 0 Calma 9 Norte 0 -- -- 68
2019-03-29 05:00:00 8 3 Norte 11 Norte 0 -- -- 67
2019-03-29 04:00:00 8.1 3 Norte 7 Norte 0 -- -- 65
2019-03-29 03:00:00 7.9 0 Calma 7 Norte 0 -- -- 64
2019-03-29 02:00:00 8.2 0 Calma 6 Noroeste 0 -- -- 64
2019-03-29 01:00:00 8.6 0 Calma 6 Norte 0 -- -- 64
2019-03-29 00:00:00 8.5 0 Calma 7 Noroeste 0 -- -- 65
2019-03-28 23:00:00 9.1 0 Calma 10 Norte 0 -- -- 68
2019-03-28 22:00:00 9.6 4 Norte 8 Nordeste 0 -- -- 70
2019-03-28 21:00:00 9.8 4 Norte 9 Norte 0 -- -- 74
2019-03-28 20:00:00 11 4 Noroeste 9 Noroeste 0 -- -- 72
2019-03-28 19:00:00 12.1 3 Sur 6 Sur 0 -- -- 66
2019-03-28 18:00:00 14.7 3 Sur 11 Nordeste 0 -- -- 56
2019-03-28 17:00:00 15.7 4 Sudeste 17 Sudeste 0 -- -- 53
2019-03-28 16:00:00 15.4 5 Sudeste 19 Sur 0 -- -- 50
2019-03-28 15:00:00 16.3 7 Sudeste 17 Sudeste 0 -- -- 51
2019-03-28 14:00:00 17.1 6 Sur 19 Sur 0 -- -- 44
2019-03-28 13:00:00 17.5 6 Sur 17 Nordeste 0 -- -- 40
2019-03-28 12:00:00 17.4 6 Sudeste 15 Sudeste 0 -- -- 36
2019-03-28 11:00:00 17.7 5 Sudeste 15 Nordeste 0 -- -- 34
2019-03-28 10:00:00 17.5 4 Sudeste 14 Sudeste 0 -- -- 33
2019-03-28 09:00:00 16.3 3 Este 10 Este 0 -- -- 37
2019-03-28 08:00:00 10.4 5 Norte 13 Norte 0 -- -- 48
2019-03-28 07:00:00 9.3 8 Norte 14 Norte 0 -- -- 45
2019-03-28 06:00:00 10 8 Norte 15 Norte 0 -- -- 44
2019-03-28 05:00:00 9.6 8 Norte 17 Norte 0 -- -- 46
2019-03-28 04:00:00 10.7 9 Norte 19 Norte 0 -- -- 44
2019-03-28 03:00:00 10.9 9 Norte 21 Norte 0 -- -- 46
2019-03-28 02:00:00 10.1 9 Norte 19 Norte 0 -- -- 55
2019-03-28 01:00:00 9.6 9 Norte 18 Norte 0 -- -- 61
2019-03-28 00:00:00 9.7 9 Norte 15 Norte 0 -- -- 62
2019-03-27 23:00:00 8.8 5 Norte 9 Norte 0 -- -- 62
2019-03-27 22:00:00 10.4 4 Norte 12 Noroeste 0 -- -- 57
2019-03-27 21:00:00 9.7 0 Calma 8 Norte 0 -- -- 61
2019-03-27 20:00:00 10.2 3 Norte 6 Noroeste 0 -- -- 60
2019-03-27 19:00:00 11.8 2 Noroeste 8 Sur 0 -- -- 53
2019-03-27 18:00:00 14.1 5 Sur 13 Sur 0 -- -- 44
2019-03-27 17:00:00 15.4 5 Sur 17 Sudeste 0 -- -- 40
2019-03-27 16:00:00 16.3 6 Sudeste 17 Sudeste 0 -- -- 38
2019-03-27 15:00:00 16.6 8 Sur 15 Sudeste 0 -- -- 35
2019-03-27 14:00:00 16.9 6 Sur 17 Sur 0 -- -- 34
2019-03-27 13:00:00 16.3 5 Sudeste 17 Sudeste 0 -- -- 33
2019-03-27 12:00:00 16.5 6 Sudeste 14 Sudeste 0 -- -- 32
2019-03-27 11:00:00 16.7 5 Sudeste 14 Nordeste 0 -- -- 36
2019-03-27 10:00:00 16.4 4 Sudeste 10 Sudeste 0 -- -- 34
2019-03-27 09:00:00 15.7 3 Sur 7 Sur 0 -- -- 34
2019-03-27 08:00:00 9.9 3 Norte 10 Norte 0 -- -- 39
2019-03-27 07:00:00 7 0 Calma 12 Norte 0 -- -- 40
2019-03-27 06:00:00 9.4 3 Norte 19 Noroeste 0 -- -- 35
2019-03-27 05:00:00 10.5 8 Norte 22 Norte 0 -- -- 35
2019-03-27 04:00:00 6.1 0 Calma 9 Nordeste 0 -- -- 46
2019-03-27 03:00:00 7 4 Norte 11 Noroeste 0 -- -- 48
2019-03-27 02:00:00 7.8 5 Norte 11 Norte 0 -- -- 47
2019-03-27 01:00:00 7.8 5 Norte 13 Norte 0 -- -- 46
2019-03-27 00:00:00 8.8 6 Norte 10 Noroeste 0 -- -- 43